sensor_id;sensor_type;location;lat;lon;timestamp;P1;durP1;ratioP1;P2;durP2;ratioP2
12425;SDS011;6277;49.824;9.562;2022-11-15T00:00:51;3.40;;;2.42;;
12425;SDS011;6277;49.824;9.562;2022-11-15T00:03:17;4.65;;;2.85;;
12425;SDS011;6277;49.824;9.562;2022-11-15T00:05:45;3.03;;;2.28;;
12425;SDS011;6277;49.824;9.562;2022-11-15T00:08:10;3.10;;;2.30;;
12425;SDS011;6277;49.824;9.562;2022-11-15T00:10:36;3.63;;;2.35;;
12425;SDS011;6277;49.824;9.562;2022-11-15T00:13:06;3.75;;;2.40;;
12425;SDS011;6277;49.824;9.562;2022-11-15T00:15:36;3.88;;;2.70;;
12425;SDS011;6277;49.824;9.562;2022-11-15T00:18:03;4.18;;;2.35;;
12425;SDS011;6277;49.824;9.562;2022-11-15T00:20:30;3.97;;;2.10;;
12425;SDS011;6277;49.824;9.562;2022-11-15T00:22:58;2.90;;;2.17;;
12425;SDS011;6277;49.824;9.562;2022-11-15T00:25:23;2.80;;;2.00;;
12425;SDS011;6277;49.824;9.562;2022-11-15T00:27:49;2.88;;;2.13;;
12425;SDS011;6277;49.824;9.562;2022-11-15T00:30:16;3.00;;;2.00;;
12425;SDS011;6277;49.824;9.562;2022-11-15T00:32:42;3.05;;;2.10;;
12425;SDS011;6277;49.824;9.562;2022-11-15T00:35:07;3.58;;;2.42;;
12425;SDS011;6277;49.824;9.562;2022-11-15T00:37:33;2.95;;;2.13;;
12425;SDS011;6277;49.824;9.562;2022-11-15T00:39:58;3.10;;;2.33;;
12425;SDS011;6277;49.824;9.562;2022-11-15T00:42:24;4.72;;;2.63;;
12425;SDS011;6277;49.824;9.562;2022-11-15T00:44:49;5.88;;;3.20;;
12425;SDS011;6277;49.824;9.562;2022-11-15T00:47:15;5.05;;;3.10;;
12425;SDS011;6277;49.824;9.562;2022-11-15T00:49:40;3.55;;;2.47;;
12425;SDS011;6277;49.824;9.562;2022-11-15T00:52:06;4.65;;;2.70;;
12425;SDS011;6277;49.824;9.562;2022-11-15T00:54:32;4.90;;;2.80;;
12425;SDS011;6277;49.824;9.562;2022-11-15T00:56:57;4.25;;;3.15;;
12425;SDS011;6277;49.824;9.562;2022-11-15T00:59:23;5.40;;;2.80;;
12425;SDS011;6277;49.824;9.562;2022-11-15T01:01:48;3.58;;;2.55;;
12425;SDS011;6277;49.824;9.562;2022-11-15T01:04:14;4.72;;;2.50;;
12425;SDS011;6277;49.824;9.562;2022-11-15T01:06:40;3.65;;;2.38;;
12425;SDS011;6277;49.824;9.562;2022-11-15T01:09:05;2.88;;;2.25;;
12425;SDS011;6277;49.824;9.562;2022-11-15T01:11:31;2.63;;;2.10;;
12425;SDS011;6277;49.824;9.562;2022-11-15T01:13:56;3.97;;;2.30;;
12425;SDS011;6277;49.824;9.562;2022-11-15T01:16:22;3.67;;;2.05;;
12425;SDS011;6277;49.824;9.562;2022-11-15T01:18:47;3.05;;;1.92;;
12425;SDS011;6277;49.824;9.562;2022-11-15T01:21:14;3.72;;;2.72;;
12425;SDS011;6277;49.824;9.562;2022-11-15T01:23:41;5.00;;;2.25;;
12425;SDS011;6277;49.824;9.562;2022-11-15T01:26:09;4.82;;;2.38;;
12425;SDS011;6277;49.824;9.562;2022-11-15T01:28:37;4.05;;;2.53;;
12425;SDS011;6277;49.824;9.562;2022-11-15T01:31:04;4.10;;;2.50;;
12425;SDS011;6277;49.824;9.562;2022-11-15T01:33:38;3.95;;;2.63;;
12425;SDS011;6277;49.824;9.562;2022-11-15T01:36:04;2.63;;;2.10;;
12425;SDS011;6277;49.824;9.562;2022-11-15T01:38:31;3.28;;;2.40;;
12425;SDS011;6277;49.824;9.562;2022-11-15T01:40:57;4.00;;;2.35;;
12425;SDS011;6277;49.824;9.562;2022-11-15T01:43:23;3.75;;;2.65;;
12425;SDS011;6277;49.824;9.562;2022-11-15T01:45:51;3.28;;;2.47;;
12425;SDS011;6277;49.824;9.562;2022-11-15T01:48:22;3.30;;;2.42;;
12425;SDS011;6277;49.824;9.562;2022-11-15T01:50:50;3.92;;;2.45;;
12425;SDS011;6277;49.824;9.562;2022-11-15T01:53:16;2.92;;;2.22;;
12425;SDS011;6277;49.824;9.562;2022-11-15T01:55:44;2.40;;;1.95;;
12425;SDS011;6277;49.824;9.562;2022-11-15T01:58:10;3.72;;;1.90;;
12425;SDS011;6277;49.824;9.562;2022-11-15T02:00:36;2.72;;;2.05;;
12425;SDS011;6277;49.824;9.562;2022-11-15T02:03:02;2.05;;;1.67;;
12425;SDS011;6277;49.824;9.562;2022-11-15T02:05:27;3.10;;;2.00;;
12425;SDS011;6277;49.824;9.562;2022-11-15T02:07:55;3.83;;;2.00;;
12425;SDS011;6277;49.824;9.562;2022-11-15T02:10:22;2.47;;;1.80;;
12425;SDS011;6277;49.824;9.562;2022-11-15T02:12:48;1.88;;;1.52;;
12425;SDS011;6277;49.824;9.562;2022-11-15T02:15:15;1.83;;;1.65;;
12425;SDS011;6277;49.824;9.562;2022-11-15T02:34:04;2.22;;;1.60;;
12425;SDS011;6277;49.824;9.562;2022-11-15T02:39:46;3.03;;;2.08;;
12425;SDS011;6277;49.824;9.562;2022-11-15T02:42:26;3.05;;;1.90;;
12425;SDS011;6277;49.824;9.562;2022-11-15T02:45:19;4.32;;;1.70;;
12425;SDS011;6277;49.824;9.562;2022-11-15T02:47:49;3.03;;;2.05;;
12425;SDS011;6277;49.824;9.562;2022-11-15T02:50:20;3.58;;;1.90;;
12425;SDS011;6277;49.824;9.562;2022-11-15T02:52:49;3.17;;;2.15;;
12425;SDS011;6277;49.824;9.562;2022-11-15T02:55:32;2.58;;;2.28;;
12425;SDS011;6277;49.824;9.562;2022-11-15T03:00:59;2.85;;;2.30;;
12425;SDS011;6277;49.824;9.562;2022-11-15T03:06:05;3.78;;;2.00;;
12425;SDS011;6277;49.824;9.562;2022-11-15T03:09:17;2.77;;;1.73;;
12425;SDS011;6277;49.824;9.562;2022-11-15T03:12:00;2.15;;;1.80;;
12425;SDS011;6277;49.824;9.562;2022-11-15T03:14:44;3.65;;;2.20;;
12425;SDS011;6277;49.824;9.562;2022-11-15T03:17:30;3.40;;;2.20;;
12425;SDS011;6277;49.824;9.562;2022-11-15T03:20:04;2.75;;;2.17;;
12425;SDS011;6277;49.824;9.562;2022-11-15T03:22:34;2.70;;;2.17;;
12425;SDS011;6277;49.824;9.562;2022-11-15T03:25:04;3.47;;;2.50;;
12425;SDS011;6277;49.824;9.562;2022-11-15T03:27:34;3.35;;;1.73;;
12425;SDS011;6277;49.824;9.562;2022-11-15T03:30:05;2.42;;;2.00;;
12425;SDS011;6277;49.824;9.562;2022-11-15T03:32:53;2.10;;;1.80;;
12425;SDS011;6277;49.824;9.562;2022-11-15T03:35:22;2.38;;;1.80;;
12425;SDS011;6277;49.824;9.562;2022-11-15T03:40:53;2.27;;;1.80;;
12425;SDS011;6277;49.824;9.562;2022-11-15T03:43:36;3.65;;;1.75;;
12425;SDS011;6277;49.824;9.562;2022-11-15T03:46:15;2.55;;;1.67;;
12425;SDS011;6277;49.824;9.562;2022-11-15T03:48:47;4.13;;;2.53;;
12425;SDS011;6277;49.824;9.562;2022-11-15T03:51:16;2.63;;;1.70;;
12425;SDS011;6277;49.824;9.562;2022-11-15T03:53:42;2.60;;;2.00;;
12425;SDS011;6277;49.824;9.562;2022-11-15T03:56:08;4.00;;;2.22;;
12425;SDS011;6277;49.824;9.562;2022-11-15T03:58:33;3.13;;;2.00;;
12425;SDS011;6277;49.824;9.562;2022-11-15T04:00:59;2.08;;;1.73;;
12425;SDS011;6277;49.824;9.562;2022-11-15T04:03:25;2.38;;;2.03;;
12425;SDS011;6277;49.824;9.562;2022-11-15T04:05:51;2.63;;;1.90;;
12425;SDS011;6277;49.824;9.562;2022-11-15T04:08:16;2.83;;;2.00;;
12425;SDS011;6277;49.824;9.562;2022-11-15T04:10:42;2.45;;;2.08;;
12425;SDS011;6277;49.824;9.562;2022-11-15T04:13:07;2.78;;;2.13;;
12425;SDS011;6277;49.824;9.562;2022-11-15T04:15:33;3.75;;;1.95;;
12425;SDS011;6277;49.824;9.562;2022-11-15T04:17:59;2.58;;;1.92;;
12425;SDS011;6277;49.824;9.562;2022-11-15T04:20:25;2.30;;;2.10;;
12425;SDS011;6277;49.824;9.562;2022-11-15T04:23:18;3.58;;;2.22;;
12425;SDS011;6277;49.824;9.562;2022-11-15T04:26:04;4.35;;;2.00;;
12425;SDS011;6277;49.824;9.562;2022-11-15T04:28:36;1.60;;;1.38;;
12425;SDS011;6277;49.824;9.562;2022-11-15T04:31:21;4.20;;;2.17;;
12425;SDS011;6277;49.824;9.562;2022-11-15T04:33:47;2.00;;;1.80;;
12425;SDS011;6277;49.824;9.562;2022-11-15T04:36:13;2.97;;;2.22;;
12425;SDS011;6277;49.824;9.562;2022-11-15T04:38:57;2.42;;;1.90;;
12425;SDS011;6277;49.824;9.562;2022-11-15T04:41:23;3.33;;;1.98;;
12425;SDS011;6277;49.824;9.562;2022-11-15T04:43:48;3.10;;;2.05;;
12425;SDS011;6277;49.824;9.562;2022-11-15T04:46:14;2.30;;;1.98;;
12425;SDS011;6277;49.824;9.562;2022-11-15T04:48:39;2.55;;;1.92;;
12425;SDS011;6277;49.824;9.562;2022-11-15T04:51:05;4.45;;;1.90;;
12425;SDS011;6277;49.824;9.562;2022-11-15T04:53:30;2.75;;;1.90;;
12425;SDS011;6277;49.824;9.562;2022-11-15T04:55:56;4.32;;;2.03;;
12425;SDS011;6277;49.824;9.562;2022-11-15T04:58:21;2.00;;;1.77;;
12425;SDS011;6277;49.824;9.562;2022-11-15T05:00:47;3.97;;;2.30;;
12425;SDS011;6277;49.824;9.562;2022-11-15T05:03:12;2.00;;;1.73;;
12425;SDS011;6277;49.824;9.562;2022-11-15T05:05:57;2.72;;;2.00;;
12425;SDS011;6277;49.824;9.562;2022-11-15T05:08:23;2.42;;;1.73;;
12425;SDS011;6277;49.824;9.562;2022-11-15T05:10:49;3.47;;;1.80;;
12425;SDS011;6277;49.824;9.562;2022-11-15T05:13:15;2.22;;;1.70;;
12425;SDS011;6277;49.824;9.562;2022-11-15T05:15:40;2.40;;;1.90;;
12425;SDS011;6277;49.824;9.562;2022-11-15T05:18:06;4.00;;;1.75;;
12425;SDS011;6277;49.824;9.562;2022-11-15T05:20:31;2.65;;;2.13;;
12425;SDS011;6277;49.824;9.562;2022-11-15T05:22:57;2.72;;;1.88;;
12425;SDS011;6277;49.824;9.562;2022-11-15T05:25:23;3.40;;;2.00;;
12425;SDS011;6277;49.824;9.562;2022-11-15T05:27:48;3.47;;;2.38;;
12425;SDS011;6277;49.824;9.562;2022-11-15T05:30:14;4.53;;;2.63;;
12425;SDS011;6277;49.824;9.562;2022-11-15T05:32:40;3.78;;;2.65;;
12425;SDS011;6277;49.824;9.562;2022-11-15T05:35:06;4.32;;;2.63;;
12425;SDS011;6277;49.824;9.562;2022-11-15T05:37:33;4.22;;;2.20;;
12425;SDS011;6277;49.824;9.562;2022-11-15T05:39:59;4.07;;;2.50;;
12425;SDS011;6277;49.824;9.562;2022-11-15T05:42:25;6.13;;;2.42;;
12425;SDS011;6277;49.824;9.562;2022-11-15T05:44:51;3.83;;;2.78;;
12425;SDS011;6277;49.824;9.562;2022-11-15T05:47:19;5.05;;;2.95;;
12425;SDS011;6277;49.824;9.562;2022-11-15T05:49:47;3.83;;;2.50;;
12425;SDS011;6277;49.824;9.562;2022-11-15T05:52:15;3.70;;;2.40;;
12425;SDS011;6277;49.824;9.562;2022-11-15T05:54:44;3.20;;;2.20;;
12425;SDS011;6277;49.824;9.562;2022-11-15T05:57:10;5.07;;;3.15;;
12425;SDS011;6277;49.824;9.562;2022-11-15T05:59:36;4.78;;;3.25;;
12425;SDS011;6277;49.824;9.562;2022-11-15T06:02:02;5.05;;;3.53;;
12425;SDS011;6277;49.824;9.562;2022-11-15T06:04:28;5.65;;;3.28;;
12425;SDS011;6277;49.824;9.562;2022-11-15T06:06:53;4.88;;;3.38;;
12425;SDS011;6277;49.824;9.562;2022-11-15T06:09:19;4.57;;;3.10;;
12425;SDS011;6277;49.824;9.562;2022-11-15T06:11:44;5.93;;;3.40;;
12425;SDS011;6277;49.824;9.562;2022-11-15T06:14:10;6.38;;;3.90;;
12425;SDS011;6277;49.824;9.562;2022-11-15T06:16:36;10.68;;;6.10;;
12425;SDS011;6277;49.824;9.562;2022-11-15T06:19:01;11.02;;;5.95;;
12425;SDS011;6277;49.824;9.562;2022-11-15T06:21:27;8.50;;;5.50;;
12425;SDS011;6277;49.824;9.562;2022-11-15T06:23:54;6.30;;;4.00;;
12425;SDS011;6277;49.824;9.562;2022-11-15T06:26:19;4.38;;;3.15;;
12425;SDS011;6277;49.824;9.562;2022-11-15T06:28:45;3.90;;;2.90;;
12425;SDS011;6277;49.824;9.562;2022-11-15T06:31:10;5.10;;;2.72;;
12425;SDS011;6277;49.824;9.562;2022-11-15T06:33:37;3.33;;;2.67;;
12425;SDS011;6277;49.824;9.562;2022-11-15T06:36:04;2.95;;;2.22;;
12425;SDS011;6277;49.824;9.562;2022-11-15T06:38:31;2.85;;;2.30;;
12425;SDS011;6277;49.824;9.562;2022-11-15T06:41:03;3.40;;;2.47;;
12425;SDS011;6277;49.824;9.562;2022-11-15T06:43:30;3.60;;;2.65;;
12425;SDS011;6277;49.824;9.562;2022-11-15T06:46:00;4.18;;;2.47;;
12425;SDS011;6277;49.824;9.562;2022-11-15T06:48:26;4.60;;;2.60;;
12425;SDS011;6277;49.824;9.562;2022-11-15T06:50:53;3.80;;;2.40;;
12425;SDS011;6277;49.824;9.562;2022-11-15T06:53:23;3.10;;;2.40;;
12425;SDS011;6277;49.824;9.562;2022-11-15T06:55:49;3.03;;;2.33;;
12425;SDS011;6277;49.824;9.562;2022-11-15T06:58:15;4.38;;;2.58;;
12425;SDS011;6277;49.824;9.562;2022-11-15T07:00:41;3.55;;;2.80;;
12425;SDS011;6277;49.824;9.562;2022-11-15T07:03:07;4.00;;;2.80;;
12425;SDS011;6277;49.824;9.562;2022-11-15T07:05:33;4.03;;;2.88;;
12425;SDS011;6277;49.824;9.562;2022-11-15T07:07:59;5.03;;;3.00;;
12425;SDS011;6277;49.824;9.562;2022-11-15T07:10:25;3.40;;;2.38;;
12425;SDS011;6277;49.824;9.562;2022-11-15T07:12:52;4.50;;;2.92;;
12425;SDS011;6277;49.824;9.562;2022-11-15T07:15:20;4.35;;;3.45;;
12425;SDS011;6277;49.824;9.562;2022-11-15T07:17:46;4.55;;;3.25;;
12425;SDS011;6277;49.824;9.562;2022-11-15T07:20:12;6.35;;;4.07;;
12425;SDS011;6277;49.824;9.562;2022-11-15T07:22:39;4.63;;;3.17;;
12425;SDS011;6277;49.824;9.562;2022-11-15T07:25:05;4.32;;;3.08;;
12425;SDS011;6277;49.824;9.562;2022-11-15T07:27:31;4.60;;;3.22;;
12425;SDS011;6277;49.824;9.562;2022-11-15T07:29:57;4.30;;;2.80;;
12425;SDS011;6277;49.824;9.562;2022-11-15T07:32:22;4.07;;;2.67;;
12425;SDS011;6277;49.824;9.562;2022-11-15T07:34:48;5.18;;;2.80;;
12425;SDS011;6277;49.824;9.562;2022-11-15T07:37:13;4.32;;;3.10;;
12425;SDS011;6277;49.824;9.562;2022-11-15T07:39:39;3.45;;;2.58;;
12425;SDS011;6277;49.824;9.562;2022-11-15T07:42:04;4.53;;;2.95;;
12425;SDS011;6277;49.824;9.562;2022-11-15T07:44:49;3.95;;;2.80;;
12425;SDS011;6277;49.824;9.562;2022-11-15T07:47:14;3.92;;;2.80;;
12425;SDS011;6277;49.824;9.562;2022-11-15T07:49:40;4.43;;;3.15;;
12425;SDS011;6277;49.824;9.562;2022-11-15T07:52:05;6.25;;;3.30;;
12425;SDS011;6277;49.824;9.562;2022-11-15T07:54:31;3.03;;;2.53;;
12425;SDS011;6277;49.824;9.562;2022-11-15T07:56:56;3.47;;;2.72;;
12425;SDS011;6277;49.824;9.562;2022-11-15T07:59:22;5.30;;;3.00;;
12425;SDS011;6277;49.824;9.562;2022-11-15T08:01:47;4.45;;;2.88;;
12425;SDS011;6277;49.824;9.562;2022-11-15T08:04:13;3.40;;;2.58;;
12425;SDS011;6277;49.824;9.562;2022-11-15T08:06:38;3.63;;;2.70;;
12425;SDS011;6277;49.824;9.562;2022-11-15T08:09:04;4.07;;;3.20;;
12425;SDS011;6277;49.824;9.562;2022-11-15T08:11:30;3.95;;;2.88;;
12425;SDS011;6277;49.824;9.562;2022-11-15T08:13:55;4.93;;;2.97;;
12425;SDS011;6277;49.824;9.562;2022-11-15T08:16:21;4.15;;;2.75;;
12425;SDS011;6277;49.824;9.562;2022-11-15T08:18:47;3.55;;;2.78;;
12425;SDS011;6277;49.824;9.562;2022-11-15T08:21:13;3.67;;;3.20;;
12425;SDS011;6277;49.824;9.562;2022-11-15T08:23:42;4.35;;;3.25;;
12425;SDS011;6277;49.824;9.562;2022-11-15T08:26:08;5.03;;;2.92;;
12425;SDS011;6277;49.824;9.562;2022-11-15T08:28:34;3.70;;;3.03;;
12425;SDS011;6277;49.824;9.562;2022-11-15T08:30:59;5.00;;;3.20;;
12425;SDS011;6277;49.824;9.562;2022-11-15T08:33:25;3.00;;;2.60;;
12425;SDS011;6277;49.824;9.562;2022-11-15T08:35:51;4.50;;;2.75;;
12425;SDS011;6277;49.824;9.562;2022-11-15T08:38:17;3.80;;;3.15;;
12425;SDS011;6277;49.824;9.562;2022-11-15T08:40:42;3.72;;;2.88;;
12425;SDS011;6277;49.824;9.562;2022-11-15T08:43:08;3.78;;;3.00;;
12425;SDS011;6277;49.824;9.562;2022-11-15T08:45:34;5.80;;;3.10;;
12425;SDS011;6277;49.824;9.562;2022-11-15T08:48:03;3.17;;;2.88;;
12425;SDS011;6277;49.824;9.562;2022-11-15T08:50:29;4.05;;;2.78;;
12425;SDS011;6277;49.824;9.562;2022-11-15T08:52:54;4.38;;;3.28;;
12425;SDS011;6277;49.824;9.562;2022-11-15T08:55:20;3.83;;;2.88;;
12425;SDS011;6277;49.824;9.562;2022-11-15T08:57:46;4.22;;;3.28;;
12425;SDS011;6277;49.824;9.562;2022-11-15T09:00:12;5.07;;;3.15;;
12425;SDS011;6277;49.824;9.562;2022-11-15T09:02:41;4.70;;;3.40;;
12425;SDS011;6277;49.824;9.562;2022-11-15T09:05:06;4.93;;;3.40;;
12425;SDS011;6277;49.824;9.562;2022-11-15T09:07:32;4.05;;;3.10;;
12425;SDS011;6277;49.824;9.562;2022-11-15T09:09:58;4.00;;;3.05;;
12425;SDS011;6277;49.824;9.562;2022-11-15T09:12:24;4.13;;;2.97;;
12425;SDS011;6277;49.824;9.562;2022-11-15T09:14:50;5.88;;;3.10;;
12425;SDS011;6277;49.824;9.562;2022-11-15T09:17:16;4.03;;;3.00;;
12425;SDS011;6277;49.824;9.562;2022-11-15T09:19:41;9.25;;;3.55;;
12425;SDS011;6277;49.824;9.562;2022-11-15T09:22:07;3.33;;;2.70;;
12425;SDS011;6277;49.824;9.562;2022-11-15T09:24:33;4.85;;;3.20;;
12425;SDS011;6277;49.824;9.562;2022-11-15T09:26:59;4.30;;;3.10;;
12425;SDS011;6277;49.824;9.562;2022-11-15T09:29:25;4.07;;;2.90;;
12425;SDS011;6277;49.824;9.562;2022-11-15T09:31:54;3.28;;;2.78;;
12425;SDS011;6277;49.824;9.562;2022-11-15T09:34:19;3.53;;;2.95;;
12425;SDS011;6277;49.824;9.562;2022-11-15T09:36:46;3.85;;;3.03;;
12425;SDS011;6277;49.824;9.562;2022-11-15T09:39:11;3.75;;;2.88;;
12425;SDS011;6277;49.824;9.562;2022-11-15T09:41:46;3.47;;;2.90;;
12425;SDS011;6277;49.824;9.562;2022-11-15T09:49:32;4.18;;;3.17;;
12425;SDS011;6277;49.824;9.562;2022-11-15T09:51:57;4.55;;;3.65;;
12425;SDS011;6277;49.824;9.562;2022-11-15T09:54:28;4.60;;;3.65;;
12425;SDS011;6277;49.824;9.562;2022-11-15T09:57:15;3.90;;;3.30;;
12425;SDS011;6277;49.824;9.562;2022-11-15T10:05:11;4.47;;;3.13;;
12425;SDS011;6277;49.824;9.562;2022-11-15T10:10:44;4.22;;;2.47;;
12425;SDS011;6277;49.824;9.562;2022-11-15T10:13:18;3.97;;;2.55;;
12425;SDS011;6277;49.824;9.562;2022-11-15T10:15:48;4.70;;;3.00;;
12425;SDS011;6277;49.824;9.562;2022-11-15T10:18:16;3.60;;;2.90;;
12425;SDS011;6277;49.824;9.562;2022-11-15T10:20:59;3.60;;;2.90;;
12425;SDS011;6277;49.824;9.562;2022-11-15T10:23:33;4.13;;;2.90;;
12425;SDS011;6277;49.824;9.562;2022-11-15T10:25:59;3.72;;;3.15;;
12425;SDS011;6277;49.824;9.562;2022-11-15T10:28:31;4.20;;;2.97;;
12425;SDS011;6277;49.824;9.562;2022-11-15T10:30:57;5.13;;;3.15;;
12425;SDS011;6277;49.824;9.562;2022-11-15T10:44:03;4.57;;;2.72;;
12425;SDS011;6277;49.824;9.562;2022-11-15T10:46:36;2.63;;;2.40;;
12425;SDS011;6277;49.824;9.562;2022-11-15T10:51:46;3.75;;;2.58;;
12425;SDS011;6277;49.824;9.562;2022-11-15T10:54:17;3.80;;;2.72;;
12425;SDS011;6277;49.824;9.562;2022-11-15T10:57:22;2.97;;;2.50;;
12425;SDS011;6277;49.824;9.562;2022-11-15T10:59:56;5.03;;;2.63;;
12425;SDS011;6277;49.824;9.562;2022-11-15T11:02:32;3.38;;;2.42;;
12425;SDS011;6277;49.824;9.562;2022-11-15T11:05:04;3.80;;;2.50;;
12425;SDS011;6277;49.824;9.562;2022-11-15T11:07:33;3.20;;;2.78;;
12425;SDS011;6277;49.824;9.562;2022-11-15T11:10:02;3.78;;;2.70;;
12425;SDS011;6277;49.824;9.562;2022-11-15T11:12:45;3.63;;;2.70;;
12425;SDS011;6277;49.824;9.562;2022-11-15T11:15:12;3.35;;;2.40;;
12425;SDS011;6277;49.824;9.562;2022-11-15T11:17:59;5.25;;;2.40;;
12425;SDS011;6277;49.824;9.562;2022-11-15T11:20:38;3.40;;;2.30;;
12425;SDS011;6277;49.824;9.562;2022-11-15T11:39:23;2.65;;;2.17;;
12425;SDS011;6277;49.824;9.562;2022-11-15T11:44:43;2.60;;;2.33;;
12425;SDS011;6277;49.824;9.562;2022-11-15T11:47:15;3.40;;;2.25;;
12425;SDS011;6277;49.824;9.562;2022-11-15T11:49:50;2.33;;;2.00;;
12425;SDS011;6277;49.824;9.562;2022-11-15T11:52:30;5.03;;;2.22;;
12425;SDS011;6277;49.824;9.562;2022-11-15T11:55:12;2.70;;;2.20;;
12425;SDS011;6277;49.824;9.562;2022-11-15T12:00:17;3.83;;;2.50;;
12425;SDS011;6277;49.824;9.562;2022-11-15T12:05:49;3.35;;;2.65;;
12425;SDS011;6277;49.824;9.562;2022-11-15T12:11:12;3.17;;;2.45;;
12425;SDS011;6277;49.824;9.562;2022-11-15T12:13:42;3.78;;;2.70;;
12425;SDS011;6277;49.824;9.562;2022-11-15T12:16:17;3.30;;;2.50;;
12425;SDS011;6277;49.824;9.562;2022-11-15T12:19:03;2.93;;;2.20;;
12425;SDS011;6277;49.824;9.562;2022-11-15T12:24:11;5.80;;;2.17;;
12425;SDS011;6277;49.824;9.562;2022-11-15T12:26:59;2.97;;;2.30;;
12425;SDS011;6277;49.824;9.562;2022-11-15T12:32:03;2.88;;;2.22;;
12425;SDS011;6277;49.824;9.562;2022-11-15T12:34:35;3.47;;;2.20;;
12425;SDS011;6277;49.824;9.562;2022-11-15T12:37:31;5.13;;;2.05;;
12425;SDS011;6277;49.824;9.562;2022-11-15T12:40:27;3.57;;;2.43;;
12425;SDS011;6277;49.824;9.562;2022-11-15T12:45:39;3.25;;;2.00;;
12425;SDS011;6277;49.824;9.562;2022-11-15T12:56:08;4.82;;;2.20;;
12425;SDS011;6277;49.824;9.562;2022-11-15T13:19:45;9.30;;;2.88;;
12425;SDS011;6277;49.824;9.562;2022-11-15T13:22:13;8.77;;;2.70;;
12425;SDS011;6277;49.824;9.562;2022-11-15T13:24:58;4.90;;;2.30;;
12425;SDS011;6277;49.824;9.562;2022-11-15T13:27:26;3.75;;;2.22;;
12425;SDS011;6277;49.824;9.562;2022-11-15T13:29:52;3.75;;;2.00;;
12425;SDS011;6277;49.824;9.562;2022-11-15T13:32:18;2.70;;;2.08;;
12425;SDS011;6277;49.824;9.562;2022-11-15T13:34:45;3.38;;;2.10;;
12425;SDS011;6277;49.824;9.562;2022-11-15T13:39:47;3.33;;;2.35;;
12425;SDS011;6277;49.824;9.562;2022-11-15T13:42:17;3.80;;;2.05;;
12425;SDS011;6277;49.824;9.562;2022-11-15T13:44:57;4.82;;;2.78;;
12425;SDS011;6277;49.824;9.562;2022-11-15T13:47:25;5.43;;;3.45;;
12425;SDS011;6277;49.824;9.562;2022-11-15T13:49:52;4.57;;;3.60;;
12425;SDS011;6277;49.824;9.562;2022-11-15T13:52:27;4.38;;;3.40;;
12425;SDS011;6277;49.824;9.562;2022-11-15T13:57:51;5.80;;;2.70;;
12425;SDS011;6277;49.824;9.562;2022-11-15T14:00:42;3.17;;;2.65;;
12425;SDS011;6277;49.824;9.562;2022-11-15T14:03:29;4.00;;;2.58;;
12425;SDS011;6277;49.824;9.562;2022-11-15T14:06:06;5.75;;;2.95;;
12425;SDS011;6277;49.824;9.562;2022-11-15T14:08:40;4.72;;;2.60;;
12425;SDS011;6277;49.824;9.562;2022-11-15T14:11:19;4.88;;;2.75;;
12425;SDS011;6277;49.824;9.562;2022-11-15T14:25:03;5.97;;;4.53;;
12425;SDS011;6277;49.824;9.562;2022-11-15T14:27:32;4.50;;;3.65;;
12425;SDS011;6277;49.824;9.562;2022-11-15T14:29:58;3.53;;;2.70;;
12425;SDS011;6277;49.824;9.562;2022-11-15T14:32:26;3.22;;;2.70;;
12425;SDS011;6277;49.824;9.562;2022-11-15T14:35:09;4.53;;;2.67;;
12425;SDS011;6277;49.824;9.562;2022-11-15T14:37:41;2.88;;;2.58;;
12425;SDS011;6277;49.824;9.562;2022-11-15T14:40:08;4.15;;;2.72;;
12425;SDS011;6277;49.824;9.562;2022-11-15T14:42:42;2.50;;;2.10;;
12425;SDS011;6277;49.824;9.562;2022-11-15T14:45:12;3.53;;;2.40;;
12425;SDS011;6277;49.824;9.562;2022-11-15T14:47:40;2.80;;;2.17;;
12425;SDS011;6277;49.824;9.562;2022-11-15T14:50:10;7.45;;;4.65;;
12425;SDS011;6277;49.824;9.562;2022-11-15T14:52:46;5.20;;;3.60;;
12425;SDS011;6277;49.824;9.562;2022-11-15T14:55:17;4.30;;;2.72;;
12425;SDS011;6277;49.824;9.562;2022-11-15T14:57:46;3.28;;;2.47;;
12425;SDS011;6277;49.824;9.562;2022-11-15T15:00:12;3.17;;;2.50;;
12425;SDS011;6277;49.824;9.562;2022-11-15T15:02:39;4.20;;;2.60;;
12425;SDS011;6277;49.824;9.562;2022-11-15T15:05:19;4.93;;;2.63;;
12425;SDS011;6277;49.824;9.562;2022-11-15T15:07:48;3.22;;;2.30;;
12425;SDS011;6277;49.824;9.562;2022-11-15T15:10:15;3.47;;;2.30;;
12425;SDS011;6277;49.824;9.562;2022-11-15T15:12:42;3.25;;;2.28;;
12425;SDS011;6277;49.824;9.562;2022-11-15T15:15:14;3.28;;;2.00;;
12425;SDS011;6277;49.824;9.562;2022-11-15T15:17:42;3.03;;;2.10;;
12425;SDS011;6277;49.824;9.562;2022-11-15T15:20:09;3.75;;;2.30;;
12425;SDS011;6277;49.824;9.562;2022-11-15T15:22:35;2.53;;;1.77;;
12425;SDS011;6277;49.824;9.562;2022-11-15T15:25:02;3.70;;;2.67;;
12425;SDS011;6277;49.824;9.562;2022-11-15T15:27:29;3.13;;;2.10;;
12425;SDS011;6277;49.824;9.562;2022-11-15T15:29:54;4.00;;;2.72;;
12425;SDS011;6277;49.824;9.562;2022-11-15T15:32:20;5.78;;;2.28;;
12425;SDS011;6277;49.824;9.562;2022-11-15T15:34:46;2.80;;;2.10;;
12425;SDS011;6277;49.824;9.562;2022-11-15T15:39:47;5.35;;;3.17;;
12425;SDS011;6277;49.824;9.562;2022-11-15T15:42:14;5.65;;;3.28;;
12425;SDS011;6277;49.824;9.562;2022-11-15T15:44:39;4.53;;;2.75;;
12425;SDS011;6277;49.824;9.562;2022-11-15T15:47:12;4.70;;;2.95;;
12425;SDS011;6277;49.824;9.562;2022-11-15T15:49:40;5.43;;;3.15;;
12425;SDS011;6277;49.824;9.562;2022-11-15T15:52:06;3.10;;;2.45;;
12425;SDS011;6277;49.824;9.562;2022-11-15T15:54:32;2.60;;;2.08;;
12425;SDS011;6277;49.824;9.562;2022-11-15T15:56:57;3.45;;;2.50;;
12425;SDS011;6277;49.824;9.562;2022-11-15T15:59:23;3.30;;;2.08;;
12425;SDS011;6277;49.824;9.562;2022-11-15T16:01:48;3.30;;;2.28;;
12425;SDS011;6277;49.824;9.562;2022-11-15T16:04:14;2.95;;;2.05;;
12425;SDS011;6277;49.824;9.562;2022-11-15T16:06:40;3.65;;;2.25;;
12425;SDS011;6277;49.824;9.562;2022-11-15T16:09:11;4.28;;;2.40;;
12425;SDS011;6277;49.824;9.562;2022-11-15T16:11:41;3.40;;;2.53;;
12425;SDS011;6277;49.824;9.562;2022-11-15T16:14:09;3.10;;;2.45;;
12425;SDS011;6277;49.824;9.562;2022-11-15T16:16:35;3.53;;;2.50;;
12425;SDS011;6277;49.824;9.562;2022-11-15T16:19:02;3.65;;;2.50;;
12425;SDS011;6277;49.824;9.562;2022-11-15T16:21:28;4.03;;;2.92;;
12425;SDS011;6277;49.824;9.562;2022-11-15T16:23:53;3.35;;;2.45;;
12425;SDS011;6277;49.824;9.562;2022-11-15T16:26:20;3.92;;;2.65;;
12425;SDS011;6277;49.824;9.562;2022-11-15T16:28:49;3.53;;;2.50;;
12425;SDS011;6277;49.824;9.562;2022-11-15T16:31:14;3.97;;;2.70;;
12425;SDS011;6277;49.824;9.562;2022-11-15T16:33:43;3.90;;;2.75;;
12425;SDS011;6277;49.824;9.562;2022-11-15T16:36:14;4.28;;;2.70;;
12425;SDS011;6277;49.824;9.562;2022-11-15T16:38:47;4.00;;;3.05;;
12425;SDS011;6277;49.824;9.562;2022-11-15T16:41:12;6.03;;;4.68;;
12425;SDS011;6277;49.824;9.562;2022-11-15T16:43:38;7.65;;;5.35;;
12425;SDS011;6277;49.824;9.562;2022-11-15T16:46:07;8.63;;;4.50;;
12425;SDS011;6277;49.824;9.562;2022-11-15T16:48:38;6.63;;;4.57;;
12425;SDS011;6277;49.824;9.562;2022-11-15T16:51:04;4.80;;;3.75;;
12425;SDS011;6277;49.824;9.562;2022-11-15T16:53:30;5.22;;;3.58;;
12425;SDS011;6277;49.824;9.562;2022-11-15T16:55:56;5.80;;;3.60;;
12425;SDS011;6277;49.824;9.562;2022-11-15T16:58:22;4.20;;;3.33;;
12425;SDS011;6277;49.824;9.562;2022-11-15T17:00:51;4.93;;;3.17;;
12425;SDS011;6277;49.824;9.562;2022-11-15T17:03:18;7.10;;;3.45;;
12425;SDS011;6277;49.824;9.562;2022-11-15T17:05:44;3.83;;;3.08;;
12425;SDS011;6277;49.824;9.562;2022-11-15T17:08:09;5.60;;;3.42;;
12425;SDS011;6277;49.824;9.562;2022-11-15T17:10:37;3.58;;;2.72;;
12425;SDS011;6277;49.824;9.562;2022-11-15T17:13:04;4.93;;;3.05;;
12425;SDS011;6277;49.824;9.562;2022-11-15T17:15:30;5.57;;;2.92;;
12425;SDS011;6277;49.824;9.562;2022-11-15T17:17:55;4.85;;;2.97;;
12425;SDS011;6277;49.824;9.562;2022-11-15T17:20:22;3.58;;;3.03;;
12425;SDS011;6277;49.824;9.562;2022-11-15T17:22:49;5.25;;;3.33;;
12425;SDS011;6277;49.824;9.562;2022-11-15T17:25:15;4.10;;;2.90;;
12425;SDS011;6277;49.824;9.562;2022-11-15T17:27:40;5.10;;;3.55;;
12425;SDS011;6277;49.824;9.562;2022-11-15T17:30:06;5.18;;;3.33;;